M I D A S
Marine Information and Data Acquisition System
Tripno 198 of the Zeeleeuw from 2002-01-16 04:26:10 to 2002-01-16 16:04:49
Back to CruiseResearch ActivitiesStationsMapUnderway DataData graphs

EquipmentUnitsComment
TimeDGPSUTC
LatitudeDGPSDM.mWGS84
LongitudeDGPSDM.mWGS84
TemperatureSBE03/SBE38deg celciusITS90
ConductivitySBE21S/mITS90
SalinitySBE21 Practical Salinity Units
ChlorophylAChelsea fluorimeterg/lCalibrated in Aceton
Missing or incorrect values are displayed as -999
Sea surface data collected by the RV Zeeleeuw from 2002-01-16 04:26:10 to 2002-01-16 16:04:49
                                                                                    Next 1000 lines
Time Latitude Longitude Temperature Conductivity Salinity ChlorophylA
2002-01-16 04:26:17 51°13.689 2°55.905 3.60309 2.571633 26.925848  
2002-01-16 04:26:23 51°13.69 2°55.905 3.601067 2.571433 26.922084  
2002-01-16 04:26:27 51°13.69 2°55.905 3.599304 2.576634 26.981187  
2002-01-16 04:26:33 51°13.69 2°55.905 3.599304 2.576634 26.981187  
2002-01-16 04:26:37 51°13.69 2°55.905 3.599823 2.576834 26.982755  
2002-01-16 04:26:42 51°13.689 2°55.905 3.605009 2.577134 26.987674  
2002-01-16 04:26:47 51°13.689 2°55.905 3.60392 2.570633 26.914343  
2002-01-16 04:26:52 51°13.69 2°55.906 3.600652 2.574834 26.965602  
2002-01-16 04:26:57 51°13.689 2°55.906 3.598734 2.577234 26.993225  
2002-01-16 04:27:02 51°13.689 2°55.906 3.598734 2.577234 26.993225  
2002-01-16 04:27:07 51°13.689 2°55.906 3.602519 2.576834 26.992289  
2002-01-16 04:27:13 51°13.689 2°55.906 3.599719 2.577534 26.99888  
2002-01-16 04:27:17 51°13.688 2°55.906 3.599719 2.577534 26.99888  
2002-01-16 04:27:22 51°13.688 2°55.906 3.598474 2.577334 26.997311  
2002-01-16 04:27:27 51°13.688 2°55.906 3.594636 2.571933 26.934423  
2002-01-16 04:27:33 51°13.688 2°55.905 3.594636 2.571933 26.934423  
2002-01-16 04:27:37 51°13.688 2°55.905 3.593651 2.574534 26.96508  
2002-01-16 04:27:43 51°13.688 2°55.905 3.587012 2.576534 26.991036  
2002-01-16 04:27:47 51°13.688 2°55.905 3.584989 2.578635 27.015948  
2002-01-16 04:27:53 51°13.687 2°55.905 3.576273 2.574434 26.966861  
2002-01-16 04:27:57 51°13.687 2°55.905 3.574613 2.577734 27.004852  
2002-01-16 04:28:02 51°13.687 2°55.905 3.574613 2.577734 27.004852  
2002-01-16 04:28:07 51°13.687 2°55.905 3.567038 2.572433 26.947501  
2002-01-16 04:28:13 51°13.687 2°55.905 3.568335 2.578134 27.014597  
2002-01-16 04:28:18 51°13.687 2°55.905 3.57067 2.574134 26.972205  
2002-01-16 04:28:23 51°13.687 2°55.905 3.5715 2.569433 26.922483  
2002-01-16 04:28:27 51°13.687 2°55.905 3.561226 2.561931 26.839065  
2002-01-16 04:28:33 51°13.686 2°55.905 3.561226 2.561931 26.839065  
2002-01-16 04:28:38 51°13.686 2°55.905 3.560603 2.55543 26.767899  
2002-01-16 04:28:42 51°13.686 2°55.905 3.562627 2.546629 26.667376  
2002-01-16 04:28:47 51°13.686 2°55.905 3.568231 2.537428 26.567356  
2002-01-16 04:28:52 51°13.686 2°55.905 3.573005 2.531227 26.496069  
2002-01-16 04:28:57 51°13.686 2°55.905 3.581928 2.521126 26.380708  
2002-01-16 04:29:02 51°13.686 2°55.905 3.581928 2.521126 26.380708  
2002-01-16 04:29:07 51°13.686 2°55.905 3.587323 2.519526 26.364477  
2002-01-16 04:29:12 51°13.686 2°55.904 3.58836 2.514425 26.307317  
2002-01-16 04:29:17 51°13.686 2°55.904 3.583951 2.509925 26.256345  
2002-01-16 04:29:23 51°13.686 2°55.904 3.583432 2.499825 26.141089  
2002-01-16 04:29:27 51°13.686 2°55.904 3.581461 2.492424 26.052616  
2002-01-16 04:29:33 51°13.685 2°55.904 3.581461 2.492424 26.052616  
2002-01-16 04:29:37 51°13.685 2°55.904 3.585144 2.490824 26.03001  
2002-01-16 04:29:43 51°13.685 2°55.904 3.583225 2.482724 25.933596  
2002-01-16 04:29:47 51°13.685 2°55.904 3.58032 2.481124 25.913141  
2002-01-16 04:29:53 51°13.685 2°55.904 3.584625 2.475724 25.850555  
2002-01-16 04:29:57 51°13.685 2°55.904 3.584314 2.478624 25.885897  
2002-01-16 04:30:03 51°13.685 2°55.903 3.584314 2.478624 25.885897  
2002-01-16 04:30:07 51°13.685 2°55.902 3.585092 2.477724 25.874879  
2002-01-16 04:30:12 51°13.685 2°55.901 3.57757 2.472524 25.814595  
2002-01-16 04:30:18 51°13.685 2°55.897 3.585974 2.476624 25.862977  
2002-01-16 04:30:23 51°13.685 2°55.894 3.580579 2.471724 25.806834  
2002-01-16 04:30:27 51°13.686 2°55.89 3.583329 2.476624 25.861571  
2002-01-16 04:30:34 51°13.686 2°55.881 3.583329 2.476624 25.861571  
2002-01-16 04:30:38 51°13.686 2°55.876 19.465896 2.470324 25.790796  
2002-01-16 04:30:43 51°13.686 2°55.868 11.705002 2.474724 25.841909  
2002-01-16 04:30:48 51°13.686 2°55.86 10.357246 2.474224 25.834774  
2002-01-16 04:30:53 51°13.685 2°55.851 11.95956 2.468025 25.765151  
2002-01-16 04:30:58 51°13.685 2°55.843 12.533134 2.472224 25.812563  
2002-01-16 04:31:03 51°13.684 2°55.836 12.533134 2.472224 25.812563  
2002-01-16 04:31:08 51°13.684 2°55.828 12.109983 2.474024 25.835996  
2002-01-16 04:31:14 51°13.683 2°55.819 11.779815 2.469225 25.782403  
2002-01-16 04:31:18 51°13.683 2°55.812 11.903497 2.474824 25.847976  
2002-01-16 04:31:23 51°13.682 2°55.804 10.915497 2.465625 25.731364  
2002-01-16 04:31:28 51°13.682 2°55.796 11.688502 2.434727 25.346154  
2002-01-16 04:31:34 51°13.68 2°55.786 11.688502 2.434727 25.346154  
2002-01-16 04:31:38 51°13.68 2°55.78 11.351623 2.407831 25.014826  
2002-01-16 04:31:43 51°13.679 2°55.772 11.415455 2.41163 25.049952  
2002-01-16 04:31:48 51°13.678 2°55.765 11.027513 2.434827 25.318419  
2002-01-16 04:31:53 51°13.677 2°55.758 12.432548 2.442326 25.412233  
2002-01-16 04:31:58 51°13.676 2°55.751 11.834889 2.464824 25.685186  
2002-01-16 04:32:03 51°13.675 2°55.745 11.834889 2.464824 25.685186  
2002-01-16 04:32:08 51°13.674 2°55.739 11.681645 2.471024 25.770777  
2002-01-16 04:32:11 51°13.674 2°55.736 12.165464 2.473924 25.81168  
2002-01-16 04:32:17 51°13.673 2°55.732 11.782052 2.469824 25.77175  
2002-01-16 04:32:23 51°13.673 2°55.731 11.405953 2.480024 25.900534  
2002-01-16 04:32:26 51°13.673 2°55.731 12.184522 2.486824 25.984135  
2002-01-16 04:32:33 51°13.676 2°55.734 12.184522 2.486824 25.984135  
2002-01-16 04:32:38 51°13.678 2°55.737 11.137356 2.489224 26.020154  
2002-01-16 04:32:43 51°13.681 2°55.74 12.254944 2.486724 25.99855  
2002-01-16 04:32:47 51°13.685 2°55.742 11.431427 2.484024 25.971106  
2002-01-16 04:32:53 51°13.691 2°55.745 12.329094 2.485425 25.992125  
2002-01-16 04:32:57 51°13.696 2°55.746 11.728944 2.482325 25.959376  
2002-01-16 04:33:03 51°13.703 2°55.745 11.728944 2.482325 25.959376  
2002-01-16 04:33:07 51°13.709 2°55.743 11.873646 2.472025 25.845423  
2002-01-16 04:33:13 51°13.718 2°55.74 12.579018 2.473125 25.862975  
2002-01-16 04:33:18 51°13.726 2°55.735 12.278371 2.471425 25.847694  
2002-01-16 04:33:22 51°13.733 2°55.73 12.021126 2.468725 25.818822  
2002-01-16 04:33:27 51°13.741 2°55.722 12.332987 2.464525 25.774145  
2002-01-16 04:33:33 51°13.752 2°55.713 12.332987 2.464525 25.774145  
2002-01-16 04:33:38 51°13.761 2°55.704 12.558719 2.449226 25.60076  
2002-01-16 04:33:43 51°13.77 2°55.695 12.158157 2.430628 25.393152  
2002-01-16 04:33:47 51°13.778 2°55.688 11.819517 2.41663 25.234203  
2002-01-16 04:33:53 51°13.79 2°55.676 11.404438 2.397534 25.01498  
2002-01-16 04:33:58 51°13.8 2°55.667 11.473907 2.391035 24.944063  
2002-01-16 04:34:03 51°13.811 2°55.658 11.473907 2.391035 24.944063  
2002-01-16 04:34:07 51°13.82 2°55.651 12.522256 2.37084 24.714592  
2002-01-16 04:34:12 51°13.831 2°55.641 12.304326 2.351146 24.493062  
2002-01-16 04:34:17 51°13.842 2°55.632 12.536383 2.309962 24.026132  
2002-01-16 04:34:22 51°13.853 2°55.623 12.040089 2.260087 23.459457  
2002-01-16 04:34:27 51°13.865 2°55.614 12.149306 2.19533 22.728837  
2002-01-16 04:34:32 51°13.876 2°55.605 12.149306 2.19533 22.728837  
2002-01-16 04:34:38 51°13.89 2°55.594 11.405999 2.127087 21.95946  
2002-01-16 04:34:43 51°13.902 2°55.585 11.141181 2.090823 21.55081  
2002-01-16 04:34:47 51°13.912 2°55.578 11.854088 2.063952 21.249124  
2002-01-16 04:34:52 51°13.924 2°55.568 10.034406 2.064551 21.254701  
2002-01-16 04:34:57 51°13.936 2°55.559 12.262558 2.069046 21.305814  
2002-01-16 04:35:02 51°13.948 2°55.551 12.262558 2.069046 21.305814  
2002-01-16 04:35:07 51°13.959 2°55.542 11.404163 2.087526 21.515465  
2002-01-16 04:35:12 51°13.971 2°55.533 11.593904 2.118195 21.86217  
2002-01-16 04:35:18 51°13.983 2°55.524 10.904674 2.162256 22.359605  
2002-01-16 04:35:22 51°13.991 2°55.518 11.474411 2.203524 22.827234  
2002-01-16 04:35:27 51°14 2°55.51 11.624293 2.236601 23.20106  
2002-01-16 04:35:33 51°14.011 2°55.502 11.624293 2.236601 23.20106  
2002-01-16 04:35:38 51°14.02 2°55.495 11.843646 2.265984 23.535442  
2002-01-16 04:35:43 51°14.028 2°55.488 11.170213 2.284174 23.742975  
2002-01-16 04:35:47 51°14.035 2°55.483 10.673811 2.309862 24.03614  
2002-01-16 04:35:53 51°14.044 2°55.476 10.450983 2.332553 24.294862  
2002-01-16 04:35:57 51°14.051 2°55.471 10.68017 2.347448 24.467534  
2002-01-16 04:36:03 51°14.06 2°55.464 10.68017 2.347448 24.467534  
2002-01-16 04:36:07 51°14.066 2°55.46 11.12809 2.361843 24.633999  
2002-01-16 04:36:13 51°14.074 2°55.454 10.394365 2.37274 24.758575  
2002-01-16 04:36:18 51°14.082 2°55.448 10.643259 2.383637 24.883905  
2002-01-16 04:36:23 51°14.091 2°55.442 10.7937 2.391635 24.974079  
2002-01-16 04:36:27 51°14.098 2°55.437 10.678685 2.395735 25.022371  
2002-01-16 04:36:33 51°14.11 2°55.428 10.678685 2.395735 25.022371  
2002-01-16 04:36:37 51°14.119 2°55.421 10.945183 2.396734 25.033135  
2002-01-16 04:36:42 51°14.131 2°55.412 10.828165 2.396734 25.033135  
2002-01-16 04:36:47 51°14.143 2°55.402 11.242367 2.396434 25.029017  
2002-01-16 04:36:52 51°14.156 2°55.392 11.275954 2.396234 25.026045  
2002-01-16 04:36:57 51°14.169 2°55.38 10.508064 2.396934 25.035424  
2002-01-16 04:37:02 51°14.181 2°55.368 10.508064 2.396934 25.035424  
2002-01-16 04:37:07 51°14.194 2°55.354 10.299146 2.398534 25.055109  
2002-01-16 04:37:12 51°14.207 2°55.34 10.826312 2.401233 25.08671  
2002-01-16 04:37:17 51°14.22 2°55.325 11.739907 2.404733 25.126107  
2002-01-16 04:37:23 51°14.234 2°55.305 10.260851 2.411432 25.202859  
2002-01-16 04:37:27 51°14.244 2°55.29 10.297465 2.41823 25.280784  
2002-01-16 04:37:33 51°14.257 2°55.268 10.297465 2.41823 25.280784  
2002-01-16 04:37:37 51°14.266 2°55.253 11.359847 2.42303 25.335808  
2002-01-16 04:37:43 51°14.278 2°55.229 10.639451 2.427429 25.386259  
2002-01-16 04:37:47 51°14.286 2°55.213 10.647206 2.431528 25.433282  
2002-01-16 04:37:53 51°14.298 2°55.187 11.248994 2.437128 25.496828  
2002-01-16 04:37:58 51°14.307 2°55.166 11.055487 2.440627 25.537686  
2002-01-16 04:38:03 51°14.316 2°55.143 11.055487 2.440627 25.537686  
2002-01-16 04:38:07 51°14.323 2°55.125 11.05641 2.441127 25.544819  
2002-01-16 04:38:13 51°14.333 2°55.098 10.791893 2.440227 25.53449  
2002-01-16 04:38:17 51°14.34 2°55.08 10.978275 2.436928 25.495926  
2002-01-16 04:38:22 51°14.348 2°55.057 11.056918 2.428629 25.401408  
2002-01-16 04:38:27 51°14.356 2°55.034 10.635828 2.416431 25.263602  
2002-01-16 04:38:32 51°14.364 2°55.01 10.635828 2.416431 25.263602  
2002-01-16 04:38:37 51°14.373 2°54.987 10.681795 2.404733 25.130224  
2002-01-16 04:38:43 51°14.383 2°54.958 10.674972 2.397034 25.041354  
2002-01-16 04:38:47 51°14.391 2°54.94 11.150537 2.390136 24.963046  
2002-01-16 04:38:51 51°14.399 2°54.922 10.681563 2.389036 24.951818  
2002-01-16 04:38:57 51°14.411 2°54.894 11.545547 2.392935 24.993732  
2002-01-16 04:39:03 51°14.424 2°54.867 11.545547 2.392935 24.993732  
2002-01-16 04:39:07 51°14.433 2°54.85 10.570722 2.403233 25.110985  
2002-01-16 04:39:13 51°14.448 2°54.825 11.29173 2.416131 25.255337  
2002-01-16 04:39:17 51°14.457 2°54.809 10.95563 2.439927 25.526169  
2002-01-16 04:39:23 51°14.472 2°54.785 10.085529 2.464526 25.807911  
2002-01-16 04:39:27 51°14.482 2°54.769 10.254871 2.485425 26.047457  
2002-01-16 04:39:33 51°14.497 2°54.744 10.254871 2.485425 26.047457  
2002-01-16 04:39:38 51°14.509 2°54.724 10.323885 2.514826 26.384438  
2002-01-16 04:39:43 51°14.521 2°54.704 10.171658 2.540929 26.687493  
2002-01-16 04:39:47 51°14.531 2°54.687 9.934858 2.565233 26.966545  
2002-01-16 04:39:53 51°14.546 2°54.663 10.902685 2.588738 27.235936  
2002-01-16 04:39:58 51°14.558 2°54.642 9.975127 2.610044 27.480904  
2002-01-16 04:40:03 51°14.57 2°54.622 9.975127 2.610044 27.480904  
2002-01-16 04:40:07 51°14.58 2°54.606 10.54882 2.63105 27.727189  
2002-01-16 04:40:13 51°14.595 2°54.582 10.196493 2.651458 27.966072  
2002-01-16 04:40:17 51°14.605 2°54.567 10.69247 2.668464 28.16729  
2002-01-16 04:40:23 51°14.622 2°54.546 10.695393 2.683071 28.339285  
2002-01-16 04:40:28 51°14.635 2°54.528 9.13888 2.691575 28.438912  
2002-01-16 04:40:33 51°14.649 2°54.512 9.13888 2.691575 28.438912  
2002-01-16 04:40:37 51°14.66 2°54.498 9.101608 2.70248 28.571204  
2002-01-16 04:40:42 51°14.673 2°54.48 9.251042 2.710384 28.664756  
2002-01-16 04:40:47 51°14.684 2°54.46 8.937672 2.717488 28.748249  
2002-01-16 04:40:52 51°14.696 2°54.441 8.668418 2.722991 28.817065  
2002-01-16 04:40:57 51°14.708 2°54.42 9.45043 2.726893 28.864897  
2002-01-16 04:41:02 51°14.719 2°54.4 9.45043 2.726893 28.864897  
2002-01-16 04:41:07 51°14.73 2°54.38 8.640837 2.729294 28.896831  
2002-01-16 04:41:13 51°14.744 2°54.356 9.732807 2.729194 28.900403  
2002-01-16 04:41:17 51°14.753 2°54.34 10.605211 2.727793 28.89118  
2002-01-16 04:41:23 51°14.767 2°54.317 10.248704 2.726893 28.883839  
2002-01-16 04:41:27 51°14.778 2°54.302 9.988779 2.725492 28.869083  
2002-01-16 04:41:33 51°14.794 2°54.283 9.988779 2.725492 28.869083  
2002-01-16 04:41:37 51°14.805 2°54.27 9.80421 2.725892 28.872171  
2002-01-16 04:41:43 51°14.822 2°54.253 10.642284 2.731095 28.929685  
2002-01-16 04:41:47 51°14.834 2°54.241 9.903207 2.738399 29.010127  
2002-01-16 04:41:53 51°14.852 2°54.224 10.000083 2.750606 29.146989  
2002-01-16 04:41:57 51°14.864 2°54.212 10.075458 2.759512 29.243743  
2002-01-16 04:42:03 51°14.881 2°54.195 10.075458 2.759512 29.243743  
2002-01-16 04:42:07 51°14.893 2°54.185 10.152663 2.768117 29.336192  
2002-01-16 04:42:14 51°14.915 2°54.166 10.302367 2.774521 29.406146  
2002-01-16 04:42:18 51°14.927 2°54.155 10.153412 2.782826 29.499917  
2002-01-16 04:42:23 51°14.942 2°54.141 10.732507 2.789531 29.575812  
2002-01-16 04:42:27 51°14.954 2°54.13 10.46123 2.793533 29.62096  
2002-01-16 04:42:33 51°14.972 2°54.114 10.46123 2.793533 29.62096  
2002-01-16 04:42:38 51°14.987 2°54.101 10.322252 2.797536 29.667733  
2002-01-16 04:42:43 51°15.002 2°54.087 9.966259 2.800738 29.704348  
2002-01-16 04:42:47 51°15.015 2°54.076 10.261598 2.80304 29.729627  
2002-01-16 04:42:53 51°15.033 2°54.06 10.425267 2.80374 29.734567  
2002-01-16 04:42:57 51°15.045 2°54.049 10.881957 2.805141 29.750943  
2002-01-16 04:43:03 51°15.064 2°54.033 10.881957 2.805141 29.750943  
2002-01-16 04:43:07 51°15.076 2°54.022 10.505319 2.806642 29.766051  
2002-01-16 04:43:13 51°15.094 2°54.005 10.393106 2.807443 29.773783  
2002-01-16 04:43:17 51°15.106 2°53.994 10.586853 2.808243 29.782327  
2002-01-16 04:43:23 51°15.125 2°53.977 9.825564 2.809044 29.790872  
2002-01-16 04:43:28 51°15.139 2°53.963 10.015231 2.810745 29.80913  
2002-01-16 04:43:33 51°15.155 2°53.949 10.015231 2.810745 29.80913  
2002-01-16 04:43:37 51°15.167 2°53.937 10.853493 2.811546 29.817675  
2002-01-16 04:43:43 51°15.185 2°53.92 9.977098 2.812446 29.826574  
2002-01-16 04:43:47 51°15.197 2°53.909 10.09115 2.812947 29.831609  
2002-01-16 04:43:52 51°15.212 2°53.896 11.030883 2.813247 29.835118  
2002-01-16 04:43:57 51°15.227 2°53.882 10.739696 2.814248 29.844373  
2002-01-16 04:44:03 51°15.246 2°53.866 10.739696 2.814248 29.844373  
2002-01-16 04:44:07 51°15.258 2°53.854 10.206733 2.815348 29.855611  
2002-01-16 04:44:12 51°15.273 2°53.841 10.009838 2.816049 29.862984  
2002-01-16 04:44:18 51°15.292 2°53.824 10.316884 2.81695 29.874327  
2002-01-16 04:44:23 51°15.307 2°53.81 10.618407 2.81755 29.881346  
2002-01-16 04:44:27 51°15.32 2°53.798 5.09274 2.81785 29.885672  
2002-01-16 04:44:33 51°15.339 2°53.781 5.09274 2.81785 29.885672  
2002-01-16 04:44:38 51°15.355 2°53.767 4.629427 2.818351 29.891521  
2002-01-16 04:44:43 51°15.37 2°53.752 5.294811 2.81805 29.890458  
2002-01-16 04:44:47 51°15.383 2°53.741 4.834009 2.81695 29.879219  
2002-01-16 04:44:53 51°15.401 2°53.722 5.083169 2.816149 29.87149  
2002-01-16 04:44:57 51°15.414 2°53.711 4.918662 2.814148 29.84972  
2002-01-16 04:45:03 51°15.433 2°53.693 4.918662 2.814148 29.84972  
2002-01-16 04:45:08 51°15.449 2°53.68 5.038839 2.812046 29.827594  
2002-01-16 04:45:13 51°15.464 2°53.664 4.875791 2.809544 29.802415  
2002-01-16 04:45:17 51°15.477 2°53.654 4.998738 2.808544 29.794783  
2002-01-16 04:45:22 51°15.493 2°53.639 5.128631 2.806843 29.776519  
2002-01-16 04:45:27 51°15.509 2°53.626 4.803138 2.805942 29.765989  
2002-01-16 04:45:32 51°15.525 2°53.612 4.803138 2.805942 29.765989  
2002-01-16 04:45:37 51°15.542 2°53.6 4.559705 2.804941 29.755915  
2002-01-16 04:45:43 51°15.561 2°53.583 4.860494 2.80384 29.742233  
2002-01-16 04:45:48 51°15.578 2°53.571 5.031946 2.802339 29.723874  
2002-01-16 04:45:53 51°15.595 2°53.556 5.286937 2.800538 29.704442  
2002-01-16 04:45:57 51°15.609 2°53.547 5.00315 2.801139 29.709026  
2002-01-16 04:46:03 51°15.629 2°53.531 5.00315 2.801139 29.709026  
2002-01-16 04:46:06 51°15.639 2°53.524 5.009539 2.801339 29.708121  
2002-01-16 04:46:13 51°15.663 2°53.505 5.100082 2.800538 29.694711  
2002-01-16 04:46:18 51°15.681 2°53.494 5.064731 2.799737 29.679685  
2002-01-16 04:46:23 51°15.698 2°53.479 5.072836 2.799637 29.673657  
2002-01-16 04:46:27 51°15.711 2°53.469 4.990978 2.799937 29.670686  
2002-01-16 04:46:33 51°15.732 2°53.452 4.990978 2.799937 29.670686  
2002-01-16 04:46:37 51°15.745 2°53.442 5.156004 2.799937 29.66583  
2002-01-16 04:46:43 51°15.766 2°53.425 4.901954 2.800037 29.660526  
2002-01-16 04:46:47 51°15.78 2°53.416 5.113498 2.800738 29.663041  
2002-01-16 04:46:53 51°15.8 2°53.399 5.202476 2.801638 29.66789  
2002-01-16 04:46:58 51°15.817 2°53.387 5.006192 2.80364 29.687202  
2002-01-16 04:47:03 51°15.834 2°53.373 5.006192 2.80364 29.687202  
2002-01-16 04:47:07 51°15.848 2°53.363 5.058348 2.80464 29.694833  
2002-01-16 04:47:13 51°15.869 2°53.346 5.02855 2.805641 29.703272  
2002-01-16 04:47:17 51°15.882 2°53.336 4.790673 2.805841 29.705607  
2002-01-16 04:47:23 51°15.903 2°53.32 5.461762 2.806842 29.716474  
2002-01-16 04:47:28 51°15.92 2°53.308 5.013341 2.808543 29.732274  
2002-01-16 04:47:33 51°15.937 2°53.293 5.013341 2.808543 29.732274  
2002-01-16 04:47:37 51°15.951 2°53.283 4.811887 2.809043 29.732442  
2002-01-16 04:47:42 51°15.968 2°53.27 5.111068 2.810745 29.745806  
2002-01-16 04:47:47 51°15.985 2°53.257 5.034075 2.812346 29.75557  
2002-01-16 04:47:53 51°16.006 2°53.24 4.542748 2.814347 29.769186  
2002-01-16 04:47:58 51°16.023 2°53.228 4.970992 2.817049 29.791771  
2002-01-16 04:48:03 51°16.04 2°53.214 4.970992 2.817049 29.791771  
2002-01-16 04:48:07 51°16.053 2°53.203 4.893928 2.81855 29.802783  
2002-01-16 04:48:13 51°16.074 2°53.187 5.107929 2.820651 29.819168  
2002-01-16 04:48:18 51°16.091 2°53.174 5.113346 2.822753 29.837168  
2002-01-16 04:48:23 51°16.108 2°53.16 4.953079 2.824954 29.855518  
2002-01-16 04:48:28 51°16.125 2°53.148 5.287694 2.827756 29.881669  
2002-01-16 04:48:33 51°16.142 2°53.134 5.287694 2.827756 29.881669  
2002-01-16 04:48:38 51°16.16 2°53.122 5.500613 2.829858 29.899653  
2002-01-16 04:48:42 51°16.174 2°53.111 5.135514 2.83266 29.924978  
2002-01-16 04:48:47 51°16.19 2°53.097 5.13855 2.834661 29.940972  
2002-01-16 04:48:53 51°16.211 2°53.082 4.684903 2.836663 29.958587  
2002-01-16 04:48:57 51°16.225 2°53.071 5.146949 2.838464 29.974681  
2002-01-16 04:49:03 51°16.246 2°53.055 5.146949 2.838464 29.974681  
2002-01-16 04:49:07 51°16.259 2°53.045 5.110359 2.840366 29.991937  
2002-01-16 04:49:13 51°16.28 2°53.029 5.321759 2.842567 30.011871  
2002-01-16 04:49:18 51°16.297 2°53.016 5.529434 2.843468 30.018284  
2002-01-16 04:49:23 51°16.315 2°53.003 5.283605 2.845169 30.032386  
2002-01-16 04:49:27 51°16.328 2°52.992 5.288905 2.84617 30.040775  
2002-01-16 04:49:33 51°16.349 2°52.977 5.288905 2.84617 30.040775  
2002-01-16 04:49:38 51°16.366 2°52.964 5.249418 2.847671 30.054172  
2002-01-16 04:49:43 51°16.383 2°52.951 5.169155 2.848772 30.062093  
2002-01-16 04:49:47 51°16.397 2°52.94 5.791839 2.849873 30.071643  
2002-01-16 04:49:53 51°16.418 2°52.925 5.216729 2.850673 30.078513  
2002-01-16 04:49:57 51°16.432 2°52.914 5.342845 2.851774 30.08806  
2002-01-16 04:50:03 51°16.453 2°52.9 5.342845 2.851774 30.08806  
2002-01-16 04:50:07 51°16.467 2°52.889 4.972717 2.852775 30.096441  
2002-01-16 04:50:13 51°16.488 2°52.874 5.221934 2.853876 30.107618  
2002-01-16 04:50:17 51°16.502 2°52.864 5.143103 2.854977 30.115529  
2002-01-16 04:50:23 51°16.523 2°52.85 5.059108 2.855477 30.119718  
2002-01-16 04:50:28 51°16.541 2°52.837 5.597436 2.856278 30.125767  
2002-01-16 04:50:33 51°16.558 2°52.825 5.597436 2.856278 30.125767  
2002-01-16 04:50:38 51°16.575 2°52.812 5.475906 2.857178 30.133795  
2002-01-16 04:50:43 51°16.593 2°52.8 5.478674 2.858179 30.143803  
2002-01-16 04:50:47 51°16.607 2°52.79 5.108992 2.85878 30.149155  
2002-01-16 04:50:53 51°16.629 2°52.776 5.069088 2.85918 30.152177  
2002-01-16 04:50:58 51°16.646 2°52.763 5.071317 2.85968 30.155547  
2002-01-16 04:51:03 51°16.663 2°52.752 5.071317 2.85968 30.155547  
2002-01-16 04:51:07 51°16.677 2°52.741 5.238456 2.860881 30.168698  
2002-01-16 04:51:13 51°16.698 2°52.728 4.786246 2.861282 30.17172  
2002-01-16 04:51:17 51°16.712 2°52.717 5.49045 2.862282 30.182542  
2002-01-16 04:51:23 51°16.734 2°52.705 5.121849 2.863083 30.188584  
2002-01-16 04:51:28 51°16.751 2°52.692 5.333513 2.863683 30.193933  
2002-01-16 04:51:33 51°16.769 2°52.682 5.333513 2.863683 30.193933  
2002-01-16 04:51:37 51°16.783 2°52.671 5.37562 2.865185 30.209755  
2002-01-16 04:51:42 51°16.801 2°52.662 4.924044 2.865985 30.215795  
2002-01-16 04:51:47 51°16.818 2°52.649 5.174364 2.866786 30.224287  
2002-01-16 04:51:53 51°16.84 2°52.637 5.141636 2.867787 30.234289  
2002-01-16 04:51:58 51°16.857 2°52.623 4.982558 2.868687 30.241489  
2002-01-16 04:52:03 51°16.875 2°52.614 4.982558 2.868687 30.241489  
2002-01-16 04:52:07 51°16.889 2°52.603 4.78589 2.869388 30.247999  
2002-01-16 04:52:13 51°16.91 2°52.59 5.299859 2.870389 30.257998  
2002-01-16 04:52:17 51°16.924 2°52.578 5.271589 2.87169 30.27067  
2002-01-16 04:52:23 51°16.945 2°52.565 5.61381 2.873091 30.282865  
2002-01-16 04:52:27 51°16.959 2°52.554 5.011161 2.874792 30.299369  
2002-01-16 04:52:33 51°16.98 2°52.54 5.011161 2.874792 30.299369  
2002-01-16 04:52:38 51°16.998 2°52.527 5.072228 2.876594 30.314574  
2002-01-16 04:52:43 51°17.015 2°52.515 5.17573 2.880097 30.345452  
2002-01-16 04:52:47 51°17.029 2°52.506 5.35515 2.884 30.383432  
2002-01-16 04:52:53 51°17.05 2°52.492 5.169459 2.887703 30.414968  
2002-01-16 04:52:57 51°17.064 2°52.483 5.474849 2.892307 30.457776  
2002-01-16 04:53:03 51°17.085 2°52.468 5.474849 2.892307 30.457776  
2002-01-16 04:53:07 51°17.1 2°52.459 5.486777 2.89601 30.485987  
2002-01-16 04:53:13 51°17.121 2°52.445 5.293751 2.901415 30.533937  
2002-01-16 04:53:17 51°17.135 2°52.436 5.38686 2.90712 30.582046  
2002-01-16 04:53:23 51°17.156 2°52.422 4.900582 2.911223 30.619783  
2002-01-16 04:53:27 51°17.171 2°52.413 5.033112 2.915027 30.646589  
2002-01-16 04:53:33 51°17.191 2°52.398 5.033112 2.915027 30.646589  
2002-01-16 04:53:38 51°17.21 2°52.387 5.372696 2.919931 30.686144  
2002-01-16 04:53:43 51°17.227 2°52.375 5.666218 2.923935 30.716051  
2002-01-16 04:53:47 51°17.242 2°52.367 5.508964 2.926237 30.73117  
2002-01-16 04:53:53 51°17.263 2°52.352 5.060324 2.927938 30.740148  
2002-01-16 04:53:58 51°17.281 2°52.341 5.479933 2.92994 30.750947  
2002-01-16 04:54:03 51°17.299 2°52.329 5.479933 2.92994 30.750947  
2002-01-16 04:54:07 51°17.313 2°52.322 5.237648 2.931241 30.756931  
2002-01-16 04:54:13 51°17.335 2°52.308 5.325543 2.932542 30.762912  
2002-01-16 04:54:18 51°17.353 2°52.298 5.581711 2.933042 30.761272  
2002-01-16 04:54:23 51°17.371 2°52.287 5.584575 2.933843 30.762283  
2002-01-16 04:54:27 51°17.385 2°52.279 5.671035 2.934644 30.766597  
2002-01-16 04:54:32 51°17.403 2°52.266 5.671035 2.934644 30.766597  
2002-01-16 04:54:37 51°17.421 2°52.258 5.508562 2.935044 30.764625  
2002-01-16 04:54:43 51°17.442 2°52.244 5.837645 2.935444 30.762654  
2002-01-16 04:54:47 51°17.457 2°52.237 5.216527 2.936345 30.767299  
2002-01-16 04:54:51 51°17.471 2°52.227 5.587891 2.937046 30.770452  
2002-01-16 04:54:58 51°17.496 2°52.215 5.335935 2.937246 30.766992  
2002-01-16 04:55:03 51°17.514 2°52.204 5.335935 2.937246 30.766992  
2002-01-16 04:55:07 51°17.529 2°52.197 5.334018 2.937847 30.769812  
2002-01-16 04:55:13 51°17.551 2°52.184 5.62315 2.938247 30.770317  
2002-01-16 04:55:17 51°17.566 2°52.178 5.497444 2.937947 30.765196  
2002-01-16 04:55:23 51°17.587 2°52.166 5.622146 2.936946 30.753625  
2002-01-16 04:55:28 51°17.606 2°52.159 5.248762 2.935945 30.742878  
2002-01-16 04:55:33 51°17.624 2°52.149 5.248762 2.935945 30.742878  
2002-01-16 04:55:38 51°17.643 2°52.143 5.794694 2.934643 30.729484  
2002-01-16 04:55:42 51°17.658 2°52.137 5.615869 2.932942 30.712285  
2002-01-16 04:55:47 51°17.677 2°52.133 5.284816 2.932141 30.703029  
2002-01-16 04:55:53 51°17.699 2°52.123 5.670784 2.93074 30.687654  
2002-01-16 04:55:58 51°17.718 2°52.119 5.367453 2.929539 30.673771  
2002-01-16 04:56:03 51°17.737 2°52.111 5.367453 2.929539 30.673771  
2002-01-16 04:56:07 51°17.752 2°52.109 5.817725 2.927837 30.653283  
2002-01-16 04:56:13 51°17.775 2°52.1 5.69396 2.926936 30.644515  
2002-01-16 04:56:17 51°17.791 2°52.098 5.199999 2.925335 30.62765  
2002-01-16 04:56:23 51°17.813 2°52.09 5.448168 2.923833 30.611121  
2002-01-16 04:56:27 51°17.829 2°52.088 5.734123 2.922132 30.593099  
2002-01-16 04:56:33 51°17.852 2°52.08 5.734123 2.922132 30.593099  
2002-01-16 04:56:38 51°17.871 2°52.077 5.572415 2.921131 30.582353  
2002-01-16 04:56:43 51°17.89 2°52.071 5.611701 2.92003 30.56963  
2002-01-16 04:56:48 51°17.91 2°52.069 5.201313 2.919529 30.564667  
2002-01-16 04:56:53 51°17.929 2°52.063 5.166121 2.918829 30.557391  
2002-01-16 04:56:57 51°17.944 2°52.061 5.250378 2.918228 30.551271  
2002-01-16 04:57:03 51°17.968 2°52.055 5.250378 2.918228 30.551271  
2002-01-16 04:57:07 51°17.983 2°52.054 5.335582 2.918228 30.551271  
2002-01-16 04:57:13 51°18.006 2°52.05 5.669028 2.918028 30.548139  
2002-01-16 04:57:17 51°18.022 2°52.049 5.548088 2.918528 30.553921  
2002-01-16 04:57:23 51°18.046 2°52.046 5.263105 2.919329 30.562354  
2002-01-16 04:57:27 51°18.061 2°52.044 5.635501 2.92003 30.567991  
2002-01-16 04:57:33 51°18.085 2°52.043 5.635501 2.92003 30.567991  
2002-01-16 04:57:38 51°18.104 2°52.043 5.597034 2.920931 30.575121  
2002-01-16 04:57:43 51°18.124 2°52.044 5.636706 2.922632 30.59232  
2002-01-16 04:57:48 51°18.143 2°52.045 5.472031 2.923833 30.604557  
2002-01-16 04:57:53 51°18.163 2°52.05 5.641274 2.925235 30.618285  
2002-01-16 04:57:58 51°18.182 2°52.056 5.479228 2.926035 30.624253  
2002-01-16 04:58:03 51°18.2 2°52.066 5.479228 2.926035 30.624253  
2002-01-16 04:58:07 51°18.215 2°52.075 5.565329 2.926636 30.62955  
2002-01-16 04:58:13 51°18.235 2°52.092 5.321053 2.927036 30.631713  
2002-01-16 04:58:18 51°18.252 2°52.108 5.566938 2.927537 30.635031  
2002-01-16 04:58:23 51°18.267 2°52.126 5.498349 2.928037 30.63835  
2002-01-16 04:58:28 51°18.282 2°52.146 5.48426 2.928437 30.642153  
2002-01-16 04:58:33 51°18.296 2°52.166 5.48426 2.928437 30.642153  
2002-01-16 04:58:37 51°18.307 2°52.184 5.275678 2.929138 30.646141  
2002-01-16 04:58:43 51°18.323 2°52.21 5.276335 2.929939 30.651284  
2002-01-16 04:58:47 51°18.333 2°52.229 5.647147 2.93084 30.660045  
2002-01-16 04:58:53 51°18.347 2°52.259 5.441471 2.93174 30.668805  
2002-01-16 04:58:58 51°18.355 2°52.286 5.277648 2.932141 30.673429  
2002-01-16 04:59:03 51°18.363 2°52.313 5.277648 2.932141 30.673429  
2002-01-16 04:59:07 51°18.368 2°52.336 5.153222 2.932041 30.673094  
2002-01-16 04:59:13 51°18.376 2°52.37 5.363369 2.932441 30.678539  
2002-01-16 04:59:16 51°18.379 2°52.388 5.361151 2.932341 30.676562  
2002-01-16 04:59:23 51°18.388 2°52.428 5.399661 2.932341 30.678205  
2002-01-16 04:59:27 51°18.392 2°52.451 5.522494 2.932141 30.675893  
2002-01-16 04:59:33 51°18.4 2°52.485 5.522494 2.932141 30.675893  
2002-01-16 04:59:37 51°18.404 2°52.509 5.357873 2.93174 30.669627  
2002-01-16 04:59:43 51°18.412 2°52.543 5.274972 2.93164 30.668471  
2002-01-16 04:59:48 51°18.418 2°52.572 5.523098 2.93144 30.666159  
2002-01-16 04:59:52 51°18.423 2°52.595 5.562464 2.93104 30.661535  
2002-01-16 04:59:57 51°18.428 2°52.624 5.477165 2.93124 30.66549  
2002-01-16 05:00:03 51°18.436 2°52.659 5.477165 2.93124 30.66549  
2002-01-16 05:00:08 51°18.441 2°52.688 5.514196 2.93124 30.667132  
2002-01-16 05:00:13 51°18.447 2°52.717 5.718432 2.93094 30.664486  
2002-01-16 05:00:18 51°18.452 2°52.746 5.519829 2.93084 30.662508  
2002-01-16 05:00:23 51°18.458 2°52.775 5.504085 2.930639 30.659375  
2002-01-16 05:00:28 51°18.465 2°52.804 5.665465 2.930239 30.657215  
2002-01-16 05:00:33 51°18.47 2°52.833 5.665465 2.930239 30.657215  
2002-01-16 05:00:38 51°18.476 2°52.861 5.293196 2.929338 30.648453  
2002-01-16 05:00:43 51°18.482 2°52.89 5.453052 2.928538 30.641667  
2002-01-16 05:00:47 51°18.488 2°52.913 5.362966 2.927036 30.627609  
2002-01-16 05:00:53 51°18.495 2°52.947 5.319034 2.925835 30.613737  
2002-01-16 05:00:58 51°18.502 2°52.976 5.80581 2.924734 30.605121  
2002-01-16 05:01:03 51°18.508 2°53.004 5.80581 2.924734 30.605121  
2002-01-16 05:01:08 51°18.516 2°53.032 5.226937 2.923533 30.595347  
2002-01-16 05:01:13 51°18.521 2°53.061 5.428881 2.922032 30.580463  
2002-01-16 05:01:18 51°18.528 2°53.089 5.546982 2.92073 30.567891  
2002-01-16 05:01:23 51°18.535 2°53.118 5.629075 2.919329 30.557438  
2002-01-16 05:01:28 51°18.541 2°53.147 5.463172 2.917127 30.536093  
2002-01-16 05:01:33 51°18.548 2°53.175 5.463172 2.917127 30.536093  
2002-01-16 05:01:38 51°18.555 2°53.204 5.374007 2.915225 30.519851  
2002-01-16 05:01:43 51°18.56 2°53.233 5.49679 2.913324 30.501969  
2002-01-16 05:01:48 51°18.569 2°53.26 5.281737 2.911622 30.484762  
2002-01-16 05:01:53 51°18.575 2°53.289 5.73297 2.910421 30.473337  
2002-01-16 05:01:58 51°18.582 2°53.317 5.19004 2.90902 30.460414  
2002-01-16 05:02:03 51°18.589 2°53.346 5.19004 2.90902 30.460414  
2002-01-16 05:02:08 51°18.595 2°53.374 5.969668 2.907719 30.44783  
2002-01-16 05:02:13 51°18.602 2°53.403 5.269922 2.906017 30.431435  
2002-01-16 05:02:18 51°18.607 2°53.432 5.660397 2.905117 30.424291  
2002-01-16 05:02:23 51°18.614 2°53.459 5.17927 2.903515 30.410681  
2002-01-16 05:02:28 51°18.619 2°53.489 5.913813 2.902314 30.399248  
2002-01-16 05:02:33 51°18.627 2°53.517 5.913813 2.902314 30.399248  
2002-01-16 05:02:38 51°18.632 2°53.546 5.2936 2.900913 30.386316  
2002-01-16 05:02:43 51°18.639 2°53.574 5.123924 2.899512 30.375014  
2002-01-16 05:02:48 51°18.644 2°53.603 5.283908 2.898211 30.361604  
2002-01-16 05:02:53 51°18.652 2°53.631 5.404246 2.897009 30.350982  
2002-01-16 05:02:58 51°18.657 2°53.661 5.768148 2.896309 30.346143  
2002-01-16 05:03:03 51°18.664 2°53.689 5.768148 2.896309 30.346143  
2002-01-16 05:03:08 51°18.67 2°53.718 5.760984 2.894708 30.333333  
2002-01-16 05:03:13 51°18.677 2°53.747 5.74976 2.893607 30.323863  
2002-01-16 05:03:18 51°18.684 2°53.775 4.967592 2.892406 30.314048  
2002-01-16 05:03:23 51°18.69 2°53.804 5.490651 2.891505 30.30689  
2002-01-16 05:03:28 51°18.697 2°53.832 5.441018 2.889803 30.289657  
2002-01-16 05:03:33 51°18.702 2°53.861 5.441018 2.889803 30.289657  
2002-01-16 05:03:38 51°18.709 2°53.889 5.438349 2.888502 30.280308  
2002-01-16 05:03:43 51°18.715 2°53.918 5.221732 2.886501 30.265294  
2002-01-16 05:03:48 51°18.722 2°53.946 5.212079 2.884199 30.245173  
2002-01-16 05:03:53 51°18.727 2°53.975 5.586937 2.882197 30.226082  
2002-01-16 05:03:58 51°18.735 2°54.003 4.995188 2.880195 30.211865  
2002-01-16 05:04:03 51°18.741 2°54.032 4.995188 2.880195 30.211865  
2002-01-16 05:04:08 51°18.747 2°54.06 5.363722 2.878494 30.198678  
2002-01-16 05:04:13 51°18.753 2°54.089 5.562766 2.876893 30.183396  
2002-01-16 05:04:18 51°18.759 2°54.117 5.433212 2.874291 30.162212  
2002-01-16 05:04:23 51°18.765 2°54.146 5.346779 2.872289 30.143102  
2002-01-16 05:04:28 51°18.772 2°54.174 5.344005 2.870388 30.125958  
2002-01-16 05:04:33 51°18.777 2°54.203 5.344005 2.870388 30.125958  
2002-01-16 05:04:38 51°18.784 2°54.231 5.382778 2.868886 30.115068  
2002-01-16 05:04:43 51°18.789 2°54.26 5.373049 2.867385 30.105798  
2002-01-16 05:04:48 51°18.796 2°54.288 5.415079 2.865484 30.089454  
2002-01-16 05:04:53 51°18.803 2°54.317 5.287492 2.864283 30.08122  
2002-01-16 05:04:58 51°18.809 2°54.346 5.611851 2.862982 30.068582  
2002-01-16 05:05:03 51°18.815 2°54.375 5.611851 2.862982 30.068582  
2002-01-16 05:05:08 51°18.822 2°54.403 5.366142 2.861681 30.059185  
2002-01-16 05:05:13 51°18.828 2°54.432 5.564374 2.86048 30.049324  
2002-01-16 05:05:18 51°18.834 2°54.461 5.191152 2.859079 30.037142  
2002-01-16 05:05:23 51°18.842 2°54.489 5.145734 2.857377 30.022289  
2002-01-16 05:05:28 51°18.849 2°54.517 5.143559 2.856777 30.019381  
2002-01-16 05:05:33 51°18.855 2°54.546 5.143559 2.856777 30.019381  
2002-01-16 05:05:38 51°18.863 2°54.574 5.062958 2.856076 30.012882  
2002-01-16 05:05:43 51°18.869 2°54.604 5.310557 2.854475 29.999183  
2002-01-16 05:05:48 51°18.877 2°54.631 5.102664 2.854375 30.000452  
2002-01-16 05:05:53 51°18.882 2°54.661 5.309195 2.852974 29.98745  
2002-01-16 05:05:58 51°18.889 2°54.689 5.552512 2.852674 29.986398  
2002-01-16 05:06:03 51°18.895 2°54.717 5.552512 2.852674 29.986398  
2002-01-16 05:06:08 51°18.9 2°54.746 4.889305 2.852374 29.985347  
2002-01-16 05:06:13 51°18.907 2°54.774 5.266034 2.852474 29.986507  
2002-01-16 05:06:18 51°18.912 2°54.804 5.328166 2.851573 29.976875  
2002-01-16 05:06:23 51°18.92 2°54.832 4.933385 2.852874 29.993577  
2002-01-16 05:06:28 51°18.925 2°54.861 4.972463 2.852874 29.993577  
2002-01-16 05:06:33 51°18.933 2°54.889 4.972463 2.852874 29.993577  
2002-01-16 05:06:38 51°18.937 2°54.918 5.097803 2.852274 29.989044  
2002-01-16 05:06:43 51°18.944 2°54.946 5.677156 2.852874 29.998436  
2002-01-16 05:06:48 51°18.95 2°54.975 4.932269 2.853174 30.001108  
2002-01-16 05:06:53 51°18.956 2°55.004 5.4247 2.853274 30.002268  
2002-01-16 05:06:58 51°18.963 2°55.033 5.629477 2.852874 29.998436  
2002-01-16 05:07:03 51°18.968 2°55.062 5.629477 2.852874 29.998436  
2002-01-16 05:07:08 51°18.975 2°55.091 5.584927 2.853174 30.001918  
2002-01-16 05:07:13 51°18.981 2°55.119 5.418907 2.853875 30.009231  
2002-01-16 05:07:17 51°18.986 2°55.142 5.539743 2.853474 30.005399  
2002-01-16 05:07:23 51°18.995 2°55.175 5.503833 2.853274 30.003078  
2002-01-16 05:07:28 51°19 2°55.204 5.495783 2.852374 29.995064  
2002-01-16 05:07:33 51°19.008 2°55.232 5.495783 2.852374 29.995064  
2002-01-16 05:07:38 51°19.014 2°55.261 5.495532 2.851373 29.986698  
2002-01-16 05:07:43 51°19.02 2°55.29 5.53562 2.850973 29.983676  
2002-01-16 05:07:48 51°19.028 2°55.317 4.955515 2.851073 29.984836  
2002-01-16 05:07:53 51°19.034 2°55.346 5.035291 2.850973 29.984485  
2002-01-16 05:07:58 51°19.04 2°55.374 5.403138 2.850072 29.974849  
2002-01-16 05:08:03 51°19.047 2°55.402 5.403138 2.850072 29.974849  
2002-01-16 05:08:08 51°19.053 2°55.431 5.654325 2.850772 29.985404  
2002-01-16 05:08:13 51°19.059 2°55.46 5.649004 2.850472 29.980302  
2002-01-16 05:08:18 51°19.066 2°55.488 5.150642 2.850472 29.982732  
2002-01-16 05:08:23 51°19.072 2°55.517 5.232646 2.849471 29.974363  
2002-01-16 05:08:28 51°19.078 2°55.546 5.18918 2.849271 29.974471  
2002-01-16 05:08:33 51°19.083 2°55.575 5.18918 2.849271 29.974471  
2002-01-16 05:08:38 51°19.089 2°55.603 5.183416 2.848471 29.964374  
2002-01-16 05:08:43 51°19.095 2°55.631 5.223551 2.849371 29.978062  
2002-01-16 05:08:48 51°19.101 2°55.66 5.387062 2.848971 29.976658  
2002-01-16 05:08:53 51°19.107 2°55.688 5.261944 2.84757 29.963642  
2002-01-16 05:08:58 51°19.113 2°55.717 5.253055 2.84767 29.966423  
2002-01-16 05:09:03 51°19.119 2°55.745 5.253055 2.84767 29.966423  
2002-01-16 05:09:08 51°19.125 2°55.774 5.124532 2.846669 29.95562  
2002-01-16 05:09:13 51°19.132 2°55.802 5.076635 2.846669 29.95805  
2002-01-16 05:09:18 51°19.137 2°55.831 5.116737 2.845869 29.951998  
2002-01-16 05:09:23 51°19.143 2°55.859 5.403944 2.844568 29.939329  
2002-01-16 05:09:28 51°19.149 2°55.887 5.528831 2.843967 29.933169  
2002-01-16 05:09:33 51°19.156 2°55.916 5.528831 2.843967 29.933169  
2002-01-16 05:09:38 51°19.161 2°55.944 5.1096 2.842867 29.925249  
2002-01-16 05:09:43 51°19.168 2°55.973 5.270478 2.841465 29.910606  
2002-01-16 05:09:48 51°19.174 2°56.001 5.726904 2.839764 29.899756  
2002-01-16 05:09:53 51°19.18 2°56.029 5.43286 2.837763 29.87733  
2002-01-16 05:09:58 51°19.187 2°56.057 5.137436 2.836662 29.866976  
2002-01-16 05:10:03 51°19.193 2°56.086 5.137436 2.836662 29.866976  
2002-01-16 05:10:08 51°19.199 2°56.114 5.05475 2.834961 29.850459  
2002-01-16 05:10:13 51°19.205 2°56.143 5.465286 2.834861 29.849297  
2002-01-16 05:10:18 51°19.212 2°56.171 5.17224 2.833159 29.834392  
2002-01-16 05:10:23 51°19.217 2°56.199 4.840212 2.832359 29.825905  
2002-01-16 05:10:28 51°19.225 2°56.227 5.293499 2.831158 29.813578  
2002-01-16 05:10:33 51°19.229 2°56.257 5.293499 2.831158 29.813578  
2002-01-16 05:10:38 51°19.237 2°56.284 5.588544 2.828956 29.791245  
2002-01-16 05:10:43 51°19.241 2°56.313 5.331445 2.828256 29.786338  
2002-01-16 05:10:48 51°19.249 2°56.34 4.835636 2.827655 29.783399  
2002-01-16 05:10:53 51°19.255 2°56.369 4.960083 2.826655 29.772585  
2002-01-16 05:10:58 51°19.263 2°56.396 5.244468 2.826555 29.773842  
2002-01-16 05:11:03 51°19.268 2°56.425 5.244468 2.826555 29.773842  
2002-01-16 05:11:08 51°19.276 2°56.453 5.040156 2.825254 29.761153  
2002-01-16 05:11:13 51°19.281 2°56.481 4.868829 2.825053 29.758023  
2002-01-16 05:11:18 51°19.289 2°56.509 5.156814 2.824853 29.758117  
2002-01-16 05:11:23 51°19.294 2°56.537 5.156814 2.824153 29.750788  
2002-01-16 05:11:28 51°19.301 2°56.565 5.230221 2.824253 29.752756  
2002-01-16 05:11:33 51°19.308 2°56.593 5.230221 2.824253 29.752756  
2002-01-16 05:11:38 51°19.315 2°56.621 5.225724 2.823752 29.74614  
2002-01-16 05:11:43 51°19.323 2°56.648 4.853023 2.822852 29.738903  
2002-01-16 05:11:48 51°19.329 2°56.676 5.051558 2.821651 29.728179  
2002-01-16 05:11:53 51°19.338 2°56.703 5.054953 2.821351 29.72872  
2002-01-16 05:11:58 51°19.345 2°56.73 5.050292 2.82035 29.719512  
2002-01-16 05:12:03 51°19.353 2°56.757 5.050292 2.82035 29.719512  
2002-01-16 05:12:08 51°19.361 2°56.784 5.128834 2.819349 29.710304  
2002-01-16 05:12:13 51°19.368 2°56.812 4.958763 2.818149 29.699575  
2002-01-16 05:12:18 51°19.377 2°56.839 5.330083 2.817048 29.689202  
2002-01-16 05:12:23 51°19.384 2°56.867 5.290016 2.815647 29.67695  
2002-01-16 05:12:28 51°19.393 2°56.893 5.452549 2.814546 29.666574  
2002-01-16 05:12:33 51°19.4 2°56.921 5.452549 2.814546 29.666574  
2002-01-16 05:12:38 51°19.409 2°56.947 4.865881 2.812845 29.648418  
2002-01-16 05:12:43 51°19.416 2°56.975 5.447464 2.811244 29.633836  
2002-01-16 05:12:48 51°19.425 2°57.002 5.114156 2.810343 29.624979  
2002-01-16 05:12:53 51°19.432 2°57.029 4.903579 2.808342 29.605742  
2002-01-16 05:12:58 51°19.44 2°57.056 5.478775 2.807241 29.595361  
2002-01-16 05:13:03 51°19.448 2°57.084 5.478775 2.807241 29.595361  
2002-01-16 05:13:08 51°19.455 2°57.111 5.060121 2.80604 29.583013  
2002-01-16 05:13:13 51°19.464 2°57.138 5.267751 2.803839 29.559841  
2002-01-16 05:13:17 51°19.47 2°57.159 4.931253 2.802738 29.547854  
2002-01-16 05:13:23 51°19.48 2°57.192 5.471427 2.802037 29.541318  
2002-01-16 05:13:28 51°19.487 2°57.219 5.099879 2.800036 29.518868  
2002-01-16 05:13:33 51°19.495 2°57.246 5.099879 2.800036 29.518868  
2002-01-16 05:13:38 51°19.503 2°57.273 4.930999 2.798435 29.50427  
2002-01-16 05:13:43 51°19.511 2°57.3 4.931355 2.795333 29.47303  
2002-01-16 05:13:48 51°19.518 2°57.328 4.802273 2.792931 29.448326  
2002-01-16 05:13:53 51°19.527 2°57.354 5.340777 2.79073 29.425146  
2002-01-16 05:13:58 51°19.535 2°57.381 4.965005 2.789029 29.405383  
2002-01-16 05:14:03 51°19.542 2°57.409 4.965005 2.789029 29.405383  
2002-01-16 05:14:08 51°19.55 2°57.436 4.965005 2.787528 29.389543  
2002-01-16 05:14:13 51°19.558 2°57.463 4.795151 2.785526 29.366295  
2002-01-16 05:14:18 51°19.566 2°57.49 4.878941 2.784025 29.350455  
2002-01-16 05:14:23 51°19.572 2°57.518 4.751482 2.782124 29.329965  
2002-01-16 05:14:28 51°19.58 2°57.545 5.207227 2.779522 29.300544  
2002-01-16 05:14:33 51°19.586 2°57.573 5.207227 2.779522 29.300544  
2002-01-16 05:14:37 51°19.594 2°57.594 5.083776 2.777021 29.275468  
2002-01-16 05:14:43 51°19.601 2°57.629 4.986464 2.77562 29.258404  
2002-01-16 05:14:48 51°19.61 2°57.655 5.037572 2.774419 29.246843  
2002-01-16 05:14:53 51°19.616 2°57.683 5.374914 2.772118 29.220118  
2002-01-16 05:14:58 51°19.625 2°57.709 4.918357 2.770917 29.207762  
2002-01-16 05:15:03 51°19.632 2°57.736 4.918357 2.770917 29.207762  
2002-01-16 05:15:07 51°19.639 2°57.758 5.243963 2.770116 29.19926  
2002-01-16 05:15:13 51°19.648 2°57.791 5.370881 2.769616 29.192658  
2002-01-16 05:15:18 51°19.657 2°57.818 4.785381 2.768115 29.176817  
2002-01-16 05:15:23 51°19.664 2°57.845 4.831162 2.767515 29.169846  
2002-01-16 05:15:28 51°19.673 2°57.872 4.835839 2.767415 29.170269  
2002-01-16 05:15:33 51°19.68 2°57.9 4.835839 2.767415 29.170269  
2002-01-16 05:15:38 51°19.689 2°57.926 4.74802 2.767415 29.170269  
2002-01-16 05:15:43 51°19.696 2°57.954 4.996861 2.766514 29.160605  
2002-01-16 05:15:48 51°19.705 2°57.98 5.213141 2.766314 29.160657  
2002-01-16 05:15:53 51°19.712 2°58.008 4.918154 2.766414 29.161819  
2002-01-16 05:15:58 51°19.72 2°58.035 5.500764 2.766714 29.165305  
2002-01-16 05:16:03 51°19.726 2°58.064 5.500764 2.766714 29.165305  
2002-01-16 05:16:08 51°19.733 2°58.092 4.841432 2.767014 29.166414  
2002-01-16 05:16:13 51°19.739 2°58.12 4.961402 2.766314 29.159073  
2002-01-16 05:16:18 51°19.745 2°58.149 4.796321 2.767014 29.166414  
2002-01-16 05:16:23 51°19.749 2°58.178 5.251641 2.767115 29.166783  
2002-01-16 05:16:28 51°19.756 2°58.206 5.295568 2.767915 29.175285  
2002-01-16 05:16:33 51°19.76 2°58.236 5.295568 2.767915 29.175285  
2002-01-16 05:16:38 51°19.767 2°58.263 5.217133 2.767615 29.171008  
2002-01-16 05:16:43 51°19.772 2°58.292 5.006192 2.769116 29.186057  
2002-01-16 05:16:48 51°19.778 2°58.32 5.380913 2.769816 29.194189  
2002-01-16 05:16:53 51°19.784 2°58.349 5.095525 2.769916 29.195351  
2002-01-16 05:16:58 51°19.79 2°58.377 5.422333 2.771817 29.217426  
2002-01-16 05:17:03 51°19.797 2°58.405 5.422333 2.771817 29.217426  
2002-01-16 05:17:08 51°19.804 2°58.433 4.963685 2.772418 29.224397  
2002-01-16 05:17:13 51°19.812 2°58.46 5.168801 2.773018 29.230575  
2002-01-16 05:17:18 51°19.817 2°58.489 4.837161 2.773018 29.229781  
2002-01-16 05:17:23 51°19.825 2°58.516 5.08646 2.773919 29.240239  
2002-01-16 05:17:28 51°19.831 2°58.544 5.211473 2.773719 29.237915  
2002-01-16 05:17:33 51°19.839 2°58.571 5.211473 2.773719 29.237915  
2002-01-16 05:17:38 51°19.845 2°58.599 5.41004 2.773218 29.232105  
2002-01-16 05:17:43 51°19.854 2°58.626 4.914802 2.772318 29.221648  
2002-01-16 05:17:48 51°19.86 2°58.654 5.65568 2.771117 29.210086  
2002-01-16 05:17:53 51°19.869 2°58.681 5.244064 2.769616 29.193451  
2002-01-16 05:17:58 51°19.875 2°58.709 5.078053 2.768015 29.174862  
2002-01-16 05:18:03 51°19.883 2°58.737 5.078053 2.768015 29.174862  
2002-01-16 05:18:08 51°19.89 2°58.765 5.286533 2.767815 29.174124  
2002-01-16 05:18:13 51°19.896 2°58.793 5.942147 2.766014 29.154796  
2002-01-16 05:18:18 51°19.904 2°58.821 4.916529 2.764813 29.140856  
2002-01-16 05:18:23 51°19.911 2°58.849 5.162428 2.764213 29.134677  
2002-01-16 05:18:28 51°19.918 2°58.877 5.201819 2.763012 29.121529  
2002-01-16 05:18:33 51°19.925 2°58.904 5.201819 2.763012 29.121529  
2002-01-16 05:18:38 51°19.932 2°58.932 5.03671 2.762111 29.110284  
2002-01-16 05:18:43 51°19.939 2°58.961 5.203537 2.760611 29.094442  
2002-01-16 05:18:48 51°19.946 2°58.989 4.998788 2.75991 29.086311  
2002-01-16 05:18:53 51°19.952 2°59.017 4.995593 2.758409 29.06968  
2002-01-16 05:18:58 51°19.96 2°59.044 5.49523 2.758109 29.066985  
2002-01-16 05:19:03 51°19.966 2°59.073 5.49523 2.758109 29.066985  
2002-01-16 05:19:08 51°19.974 2°59.1 5.269215 2.757108 29.055371  
2002-01-16 05:19:13 51°19.98 2°59.129 5.371133 2.755908 29.039858  
2002-01-16 05:19:18 51°19.988 2°59.156 5.536474 2.755207 29.034095  
2002-01-16 05:19:23 51°19.995 2°59.185 5.494576 2.755708 29.039113  
2002-01-16 05:19:28 51°20.003 2°59.212 5.453002 2.754707 29.026712  
2002-01-16 05:19:33 51°20.009 2°59.24 5.453002 2.754707 29.026712  
2002-01-16 05:19:38 51°20.016 2°59.268 5.371637 2.754907 29.028246  
2002-01-16 05:19:43 51°20.024 2°59.296 5.496337 2.754607 29.023974  
2002-01-16 05:19:48 51°20.03 2°59.324 4.960235 2.754007 29.017007  
2002-01-16 05:19:53 51°20.038 2°59.352 5.248762 2.752706 29.00349  
2002-01-16 05:19:58 51°20.045 2°59.38 4.960235 2.752406 29.000006  
2002-01-16 05:20:03 51°20.052 2°59.408 4.960235 2.752406 29.000006  
2002-01-16 05:20:08 51°20.059 2°59.436 5.454613 2.752205 28.996109  
2002-01-16 05:20:13 51°20.066 2°59.463 5.417396 2.751805 28.991465  
2002-01-16 05:20:18 51°20.072 2°59.492 5.003099 2.750605 28.978322  
2002-01-16 05:20:23 51°20.081 2°59.519 5.539491 2.751105 28.982552  
2002-01-16 05:20:28 51°20.086 2°59.548 5.62084 2.750805 28.979856  
2002-01-16 05:20:33 51°20.095 2°59.575 5.62084 2.750805 28.979856  
2002-01-16 05:20:38 51°20.101 2°59.603 5.331344 2.750604 28.97596  
2002-01-16 05:20:43 51°20.108 2°59.631 5.212635 2.750605 28.977534  
2002-01-16 05:20:48 51°20.116 2°59.658 5.250378 2.750104 28.96937  
2002-01-16 05:20:53 51°20.122 2°59.686 4.996151 2.750805 28.976708  
2002-01-16 05:20:58 51°20.13 2°59.714 5.73718 2.750504 28.973226  
2002-01-16 05:21:03 51°20.136 2°59.742 5.73718 2.750504 28.973226  
2002-01-16 05:21:08 51°20.145 2°59.769 4.912314 2.750504 28.972439  
2002-01-16 05:21:13 51°20.151 2°59.797 5.573571 2.748903 28.953868  
2002-01-16 05:21:18 51°20.159 2°59.825 5.573772 2.749404 28.961245  
2002-01-16 05:21:23 51°20.166 2°59.853 4.916072 2.749304 28.961657  
2002-01-16 05:21:28 51°20.172 2°59.881 5.078864 2.748803 28.957426  
2002-01-16 05:21:33 51°20.179 2°59.909 5.078864 2.748803 28.957426  
2002-01-16 05:21:38 51°20.186 2°59.937 5.372394 2.748403 28.954356  
2002-01-16 05:21:43 51°20.193 2°59.965 5.124279 2.747203 28.941999  
2002-01-16 05:21:48 51°20.199 2°59.993 4.874266 2.748003 28.950499  
2002-01-16 05:21:53 51°20.207 3°0.021 5.249721 2.747403 28.944321  
2002-01-16 05:21:58 51°20.213 3°0.049 4.960235 2.747403 28.944321  
2002-01-16 05:22:03 51°20.219 3°0.077 4.960235 2.747403 28.944321  
2002-01-16 05:22:08 51°20.227 3°0.105 5.126607 2.747403 28.943534  
2002-01-16 05:22:13 51°20.233 3°0.134 4.956936 2.747102 28.939266  
2002-01-16 05:22:18 51°20.241 3°0.161 4.960083 2.747503 28.943123  
2002-01-16 05:22:23 51°20.247 3°0.19 4.871573 2.746802 28.934998  
2002-01-16 05:22:28 51°20.254 3°0.217 5.365537 2.748303 28.95005  
2002-01-16 05:22:33 51°20.261 3°0.245 5.365537 2.748303 28.95005  
2002-01-16 05:22:38 51°20.269 3°0.273 4.698765 2.748803 28.957426  
2002-01-16 05:22:43 51°20.276 3°0.301 5.196309 2.749404 28.962818  
2002-01-16 05:22:48 51°20.283 3°0.329 5.19464 2.749804 28.967461  
2002-01-16 05:22:53 51°20.29 3°0.357 5.526518 2.749904 28.970195  
2002-01-16 05:22:58 51°20.297 3°0.384 5.106765 2.750104 28.972517  
2002-01-16 05:23:03 51°20.303 3°0.412 5.106765 2.750104 28.972517  
2002-01-16 05:23:08 51°20.31 3°0.44 4.98408 2.749504 28.968699  
2002-01-16 05:23:13 51°20.317 3°0.468 5.065896 2.749304 28.969525  
2002-01-16 05:23:17 51°20.322 3°0.49 5.189736 2.748103 28.957953  
2002-01-16 05:23:23 51°20.331 3°0.523 5.231838 2.749604 28.976158  
2002-01-16 05:23:28 51°20.337 3°0.552 5.235627 2.749404 28.973835  
2002-01-16 05:23:33 51°20.345 3°0.579 5.235627 2.749404 28.973835  
2002-01-16 05:23:37 51°20.35 3°0.601 5.233909 2.749404 28.97541  
2002-01-16 05:23:43 51°20.359 3°0.634 4.819669 2.749304 28.975036  
2002-01-16 05:23:48 51°20.366 3°0.662 5.276032 2.749004 28.972339  
2002-01-16 05:23:53 51°20.373 3°0.69 5.357016 2.747603 28.956082  
2002-01-16 05:23:58 51°20.381 3°0.717 4.902614 2.748403 28.965372  
2002-01-16 05:24:03 51°20.387 3°0.745 4.902614 2.748403 28.965372  
2002-01-16 05:24:08 51°20.395 3°0.772 5.275779 2.748303 28.963423  
2002-01-16 05:24:13 51°20.401 3°0.801 4.77617 2.748003 28.960727  
2002-01-16 05:24:18 51°20.409 3°0.828 4.93704 2.747903 28.960352  
2002-01-16 05:24:23 51°20.415 3°0.856 5.433766 2.748403 28.966159  
2002-01-16 05:24:28 51°20.424 3°0.883 4.936177 2.748904 28.971965  
2002-01-16 05:24:33 51°20.429 3°0.912 4.936177 2.748904 28.971965  
2002-01-16 05:24:38 51°20.438 3°0.939 5.019172 2.749104 28.974288  
2002-01-16 05:24:43 51°20.445 3°0.968 5.097044 2.748704 28.967281  
2002-01-16 05:24:48 51°20.453 3°0.995 5.260075 2.749904 28.982791  
2002-01-16 05:24:53 51°20.46 3°1.024 5.218902 2.749504 28.979721  
2002-01-16 05:24:58 51°20.469 3°1.051 5.090613 2.749004 28.976277  
2002-01-16 05:25:03 51°20.475 3°1.08 5.090613 2.749004 28.976277  
2002-01-16 05:25:08 51°20.484 3°1.108 5.094765 2.747603 28.960017  
2002-01-16 05:25:13 51°20.491 3°1.137 5.421376 2.748503 28.972044  
2002-01-16 05:25:18 51°20.499 3°1.165 5.747805 2.748203 28.969347  
2002-01-16 05:25:23 51°20.506 3°1.193 5.044312 2.748203 28.972497  
2002-01-16 05:25:28 51°20.514 3°1.221 5.332505 2.748604 28.978719  
2002-01-16 05:25:33 51°20.52 3°1.251 5.332505 2.748604 28.978719  
2002-01-16 05:25:38 51°20.528 3°1.278 5.45421 2.748604 28.980295  
2002-01-16 05:25:43 51°20.534 3°1.307 5.040207 2.749504 28.99154  
2002-01-16 05:25:47 51°20.541 3°1.328 5.081497 2.753206 29.034533  
2002-01-16 05:25:53 51°20.549 3°1.363 5.372394 2.755908 29.068283  
2002-01-16 05:25:58 51°20.556 3°1.39 4.957799 2.75891 29.105531  
2002-01-16 05:26:03 51°20.563 3°1.419 4.957799 2.75891 29.105531  
2002-01-16 05:26:08 51°20.571 3°1.446 5.125443 2.760211 29.12223  
2002-01-16 05:26:13 51°20.578 3°1.474 5.255328 2.763112 29.157539  
2002-01-16 05:26:18 51°20.586 3°1.501 4.966983 2.764713 29.176942  
2002-01-16 05:26:23 51°20.593 3°1.529 5.139106 2.765614 29.186616  
2002-01-16 05:26:27 51°20.599 3°1.551 5.05551 2.765714 29.189367  
2002-01-16 05:26:33 51°20.607 3°1.585 5.05551 2.765714 29.189367  
2002-01-16 05:26:36 51°20.613 3°1.601 4.969926 2.764513 29.175409  
2002-01-16 05:26:43 51°20.622 3°1.64 5.177955 2.764914 29.178474  
2002-01-16 05:26:47 51°20.628 3°1.662 5.176792 2.763813 29.163301  
2002-01-16 05:26:53 51°20.637 3°1.695 4.887019 2.762312 29.143479  
2002-01-16 05:26:58 51°20.644 3°1.723 5.136981 2.761411 29.130638  
2002-01-16 05:27:03 51°20.651 3°1.75 5.136981 2.761411 29.130638  
2002-01-16 05:27:08 51°20.658 3°1.777 4.884936 2.760411 29.117429  
2002-01-16 05:27:13 51°20.666 3°1.804 4.846923 2.75881 29.099621  
2002-01-16 05:27:18 51°20.674 3°1.831 4.556079 2.757809 29.085624  
2002-01-16 05:27:23 51°20.684 3°1.857 4.843567 2.756608 29.071677  
2002-01-16 05:27:28 51°20.694 3°1.882 4.969875 2.755007 29.053082  
2002-01-16 05:27:33 51°20.704 3°1.907 4.969875 2.755007 29.053082  
2002-01-16 05:27:38 51°20.715 3°1.931 5.048771 2.753306 29.034906  
2002-01-16 05:27:43 51°20.726 3°1.955 5.212686 2.751005 29.007391  
2002-01-16 05:27:48 51°20.738 3°1.979 4.883107 2.749104 28.984528  
2002-01-16 05:27:53 51°20.75 3°2.003 5.005888 2.747103 28.962869  
2002-01-16 05:27:58 51°20.761 3°2.026 5.17396 2.744601 28.934615  
2002-01-16 05:28:03 51°20.773 3°2.05 5.17396 2.744601 28.934615  
2002-01-16 05:28:07 51°20.782 3°2.069 4.802731 2.7431 28.917978  
2002-01-16 05:28:13 51°20.795 3°2.098 4.92907 2.740999 28.894373  
2002-01-16 05:28:17 51°20.805 3°2.117 5.135564 2.740499 28.889352  
2002-01-16 05:28:23 51°20.817 3°2.146 5.052977 2.739498 28.878523  
2002-01-16 05:28:28 51°20.829 3°2.17 5.346325 2.738698 28.869232  
2002-01-16 05:28:33 51°20.839 3°2.195 5.346325 2.738698 28.869232  
2002-01-16 05:28:38 51°20.85 3°2.22 4.772811 2.738198 28.863425  
2002-01-16 05:28:43 51°20.86 3°2.244 4.938005 2.737897 28.858372  
2002-01-16 05:28:48 51°20.871 3°2.269 5.152716 2.737497 28.852158  
2002-01-16 05:28:53 51°20.881 3°2.294 4.821347 2.737297 28.849051  
2002-01-16 05:28:58 51°20.892 3°2.318 5.158989 2.736997 28.844784  
2002-01-16 05:29:03 51°20.902 3°2.344 5.158989 2.736997 28.844784  
2002-01-16 05:29:08 51°20.914 3°2.367 5.167992 2.736997 28.841647  
2002-01-16 05:29:13 51°20.923 3°2.393 5.253408 2.735996 28.828471  
2002-01-16 05:29:18 51°20.935 3°2.417 4.842601 2.735296 28.817996  
2002-01-16 05:29:23 51°20.945 3°2.443 5.263408 2.735396 28.816024  
2002-01-16 05:29:28 51°20.956 3°2.466 4.769147 2.735596 28.815995  
2002-01-16 05:29:33 51°20.966 3°2.491 4.769147 2.735596 28.815995  
2002-01-16 05:29:38 51°20.978 3°2.515 5.393311 2.735596 28.812864  
2002-01-16 05:29:43 51°20.987 3°2.541 5.026269 2.734996 28.800424  
2002-01-16 05:29:48 51°20.999 3°2.564 5.278001 2.734695 28.793033  
2002-01-16 05:29:53 51°21.008 3°2.59 4.868016 2.733995 28.781787  
2002-01-16 05:29:58 51°21.02 3°2.613 4.579823 2.733995 28.777098  
2002-01-16 05:30:03 51°21.029 3°2.638 4.579823 2.733995 28.777098  
2002-01-16 05:30:08 51°21.041 3°2.661 5.206924 2.734095 28.774351  
2002-01-16 05:30:13 51°21.051 3°2.686 5.208036 2.733795 28.766968  
2002-01-16 05:30:18 51°21.062 3°2.709 5.33089 2.734095 28.766541  
2002-01-16 05:30:23 51°21.071 3°2.734 4.749751 2.734095 28.763419  
2002-01-16 05:30:28 51°21.082 3°2.758 5.041322 2.733294 28.750246  
2002-01-16 05:30:33 51°21.092 3°2.782 5.041322 2.733294 28.750246  
2002-01-16 05:30:38 51°21.102 3°2.807 5.255025 2.733995 28.755236  
2002-01-16 05:30:43 51°21.112 3°2.832 4.716393 2.734095 28.753275  
2002-01-16 05:30:48 51°21.123 3°2.856 5.052622 2.733895 28.749398  
2002-01-16 05:30:53 51°21.132 3°2.882 4.889356 2.733895 28.749398  
2002-01-16 05:30:58 51°21.143 3°2.905 5.223955 2.733694 28.746301  
2002-01-16 05:31:03 51°21.152 3°2.931 5.223955 2.733694 28.746301  
2002-01-16 05:31:08 51°21.165 3°2.953 4.895096 2.732894 28.736254  
2002-01-16 05:31:13 51°21.175 3°2.977 4.609018 2.732894 28.734696  
2002-01-16 05:31:18 51°21.187 3°2.999 5.232798 2.732494 28.727725  
2002-01-16 05:31:23 51°21.198 3°3.023 5.48577 2.733194 28.732715  
2002-01-16 05:31:28 51°21.21 3°3.044 5.322667 2.733294 28.733094  
2002-01-16 05:31:33 51°21.222 3°3.067 5.322667 2.733294 28.733094  
2002-01-16 05:31:38 51°21.235 3°3.088 5.239568 2.733094 28.727662  
2002-01-16 05:31:43 51°21.246 3°3.112 5.117901 2.732294 28.716063  
2002-01-16 05:31:48 51°21.259 3°3.132 4.82745 2.732794 28.719516  
2002-01-16 05:31:53 51°21.27 3°3.156 5.081244 2.732694 28.716023  
2002-01-16 05:31:57 51°21.28 3°3.172 5.330991 2.732794 28.714068  
2002-01-16 05:32:03 51°21.293 3°3.2 5.330991 2.732794 28.714068  
2002-01-16 05:32:08 51°21.306 3°3.221 5.04188 2.732093 28.703631  
2002-01-16 05:32:13 51°21.317 3°3.244 5.292237 2.733094 28.712093  
2002-01-16 05:32:18 51°21.33 3°3.266 5.253964 2.732794 28.707843  
2002-01-16 05:32:23 51°21.341 3°3.288 4.800391 2.732193 28.697789  
2002-01-16 05:32:28 51°21.353 3°3.31 4.92577 2.733094 28.707425  
2002-01-16 05:32:33 51°21.364 3°3.333 4.92577 2.733094 28.707425  
2002-01-16 05:32:38 51°21.376 3°3.355 5.132882 2.733394 28.709341  
2002-01-16 05:32:43 51°21.388 3°3.377 5.137183 2.733094 28.704315  
2002-01-16 05:32:48 51°21.399 3°3.399 5.301423 2.733194 28.703916  
2002-01-16 05:32:53 51°21.411 3°3.423 5.012581 2.733394 28.704675  
2002-01-16 05:32:58 51°21.423 3°3.444 5.013798 2.733294 28.701186  
2002-01-16 05:33:03 51°21.434 3°3.467 5.013798 2.733294 28.701186  
2002-01-16 05:33:08 51°21.446 3°3.49 5.140321 2.733594 28.703879  
2002-01-16 05:33:13 51°21.457 3°3.513 5.306117 2.733594 28.701547  
2002-01-16 05:33:18 51°21.468 3°3.535 5.182051 2.733794 28.703083  
2002-01-16 05:33:23 51°21.48 3°3.558 5.100082 2.733994 28.704619  
2002-01-16 05:33:28 51°21.491 3°3.582 4.886918 2.733794 28.701528  
2002-01-16 05:33:33 51°21.502 3°3.605 4.886918 2.733794 28.701528  
2002-01-16 05:33:38 51°21.512 3°3.629 5.266539 2.733894 28.701908  
2002-01-16 05:33:43 51°21.523 3°3.653 5.265832 2.734194 28.7046  
2002-01-16 05:33:48 51°21.532 3°3.678 4.893572 2.734094 28.701889  
2002-01-16 05:33:53 51°21.543 3°3.701 4.18265 2.734094 28.701112  
2002-01-16 05:33:58 51°21.553 3°3.726 4.479015 2.734094 28.700335  
2002-01-16 05:34:03 51°21.564 3°3.75 4.479015 2.734094 28.700335  
2002-01-16 05:34:08 51°21.573 3°3.775 4.268547 2.734194 28.700714  
2002-01-16 05:34:13 51°21.583 3°3.799 4.349458 2.734594 28.704563  
2002-01-16 05:34:18 51°21.593 3°3.824 4.478248 2.734194 28.700714  
2002-01-16 05:34:23 51°21.603 3°3.848 4.518274 2.734194 28.699937  
2002-01-16 05:34:28 51°21.613 3°3.873 4.478196 2.734194 28.700714  
2002-01-16 05:34:33 51°21.623 3°3.898 4.478196 2.734194 28.700714  
2002-01-16 05:34:38 51°21.633 3°3.922 4.34915 2.734294 28.700317  
2002-01-16 05:34:43 51°21.643 3°3.947 4.56379 2.734294 28.69954  
2002-01-16 05:34:48 51°21.654 3°3.97 4.392537 2.734294 28.69954  
2002-01-16 05:34:53 51°21.662 3°3.996 4.515923 2.734194 28.698383  
2002-01-16 05:34:58 51°21.674 3°4.019 4.478043 2.734194 28.699937  
2002-01-16 05:35:03 51°21.683 3°4.045 4.478043 2.734194 28.699937  
2002-01-16 05:35:07 51°21.691 3°4.064 4.979565 2.733994 28.696848  
2002-01-16 05:35:13 51°21.701 3°4.095 5.103221 2.734094 28.698004  
2002-01-16 05:35:18 51°21.712 3°4.119 5.350359 2.733894 28.694915  
2002-01-16 05:35:23 51°21.72 3°4.145 4.977181 2.734094 28.698781  
2002-01-16 05:35:28 51°21.729 3°4.17 5.761084 2.733994 28.696848  
2002-01-16 05:35:33 51°21.737 3°4.197 5.761084 2.733994 28.696848  
2002-01-16 05:35:38 51°21.747 3°4.222 5.351318 2.734094 28.695674  
2002-01-16 05:35:43 51°21.754 3°4.248 5.185894 2.734094 28.69645  
2002-01-16 05:35:48 51°21.764 3°4.273 5.515654 2.734094 28.695674  
2002-01-16 05:35:53 51°21.771 3°4.3 5.352931 2.734094 28.69645  
2002-01-16 05:35:58 51°21.782 3°4.324 4.896519 2.733994 28.695294  
2002-01-16 05:36:03 51°21.789 3°4.351 4.896519 2.733994 28.695294  
2002-01-16 05:36:08 51°21.798 3°4.376 5.270831 2.734194 28.697607  
2002-01-16 05:36:13 51°21.806 3°4.402 5.393311 2.734094 28.69645  
2002-01-16 05:36:18 51°21.815 3°4.428 5.350511 2.734294 28.697986  
2002-01-16 05:36:23 51°21.823 3°4.454 5.188624 2.734394 28.698365  
2002-01-16 05:36:28 51°21.831 3°4.48 5.478775 2.734294 28.697209  
2002-01-16 05:36:33 51°21.84 3°4.505 5.478775 2.734294 28.697209  
2002-01-16 05:36:38 51°21.847 3°4.532 5.35515 2.734394 28.698365  
2002-01-16 05:36:43 51°21.858 3°4.557 5.563319 2.734594 28.700678  
2002-01-16 05:36:48 51°21.865 3°4.583 5.356007 2.734294 28.697209  
2002-01-16 05:36:53 51°21.875 3°4.608 4.857292 2.734294 28.698763  
2002-01-16 05:36:58 51°21.884 3°4.634 5.148365 2.734394 28.698365  
2002-01-16 05:37:03 51°21.893 3°4.659 5.148365 2.734394 28.698365  
2002-01-16 05:37:08 51°21.901 3°4.685 5.148821 2.734494 28.699522  
2002-01-16 05:37:13 51°21.911 3°4.71 5.47953 2.734494 28.699522  
2002-01-16 05:37:18 51°21.919 3°4.736 5.271387 2.734494 28.697968  
2002-01-16 05:37:23 51°21.929 3°4.761 5.563822 2.734494 28.697968  
2002-01-16 05:37:28 51°21.938 3°4.787 4.901496 2.734594 28.698347  
2002-01-16 05:37:33 51°21.948 3°4.812 4.901496 2.734594 28.698347  
2002-01-16 05:37:38 51°21.956 3°4.838 5.401122 2.734694 28.70028  
2002-01-16 05:37:43 51°21.966 3°4.863 5.568194 2.734694 28.699503  
2002-01-16 05:37:48 51°21.973 3°4.89 5.399308 2.734794 28.700659  
2002-01-16 05:37:53 51°21.983 3°4.914 5.196309 2.734895 28.702592  
2002-01-16 05:37:58 51°21.991 3°4.941 5.322314 2.734894 28.700262  
2002-01-16 05:38:03 51°22.001 3°4.966 5.322314 2.734894 28.700262  
2002-01-16 05:38:08 51°22.008 3°4.993 5.280323 2.734794 28.699883  
2002-01-16 05:38:13 51°22.016 3°5.019 5.734273 2.734694 28.69795  
2002-01-16 05:38:18 51°22.023 3°5.046 5.655128 2.734995 28.699865  
2002-01-16 05:38:23 51°22.032 3°5.072 5.156763 2.734894 28.699485  
2002-01-16 05:38:28 51°22.038 3°5.099 5.446859 2.735095 28.700244  
2002-01-16 05:38:33 51°22.046 3°5.125 5.446859 2.735095 28.700244  
2002-01-16 05:38:38 51°22.053 3°5.153 5.366898 2.735095 28.697914  
2002-01-16 05:38:43 51°22.06 3°5.18 5.36463 2.735195 28.69907  
2002-01-16 05:38:48 51°22.067 3°5.207 4.993413 2.735395 28.701382  
2002-01-16 05:38:53 51°22.073 3°5.234 5.202476 2.735295 28.700226  
2002-01-16 05:38:58 51°22.08 3°5.262 4.952014 2.735595 28.702917  
2002-01-16 05:39:03 51°22.085 3°5.289 4.952014 2.735595 28.702917  
2002-01-16 05:39:07 51°22.089 3°5.312 5.201465 2.735295 28.699449  
2002-01-16 05:39:13 51°22.096 3°5.345 5.405758 2.735495 28.700208  
2002-01-16 05:39:18 51°22.101 3°5.373 5.405405 2.735495 28.699431  
2002-01-16 05:39:23 51°22.106 3°5.401 5.072482 2.735595 28.701363  
2002-01-16 05:39:28 51°22.112 3°5.43 5.154386 2.735695 28.701743  
2002-01-16 05:39:33 51°22.116 3°5.458 5.154386 2.735695 28.701743  
2002-01-16 05:39:38 51°22.122 3°5.486 5.443838 2.735795 28.702899  
2002-01-16 05:39:43 51°22.126 3°5.514 5.235172 2.735695 28.702519  
2002-01-16 05:39:48 51°22.133 3°5.541 5.155245 2.735795 28.702899  
2002-01-16 05:39:53 51°22.137 3°5.57 5.236334 2.735895 28.705608  
2002-01-16 05:39:58 51°22.145 3°5.597 5.152463 2.735795 28.704452  
2002-01-16 05:40:03 51°22.149 3°5.625 5.152463 2.735795 28.704452  
2002-01-16 05:40:08 51°22.157 3°5.652 4.990775 2.736095 28.708696  
2002-01-16 05:40:13 51°22.161 3°5.68 5.111878 2.735895 28.707938  
2002-01-16 05:40:18 51°22.168 3°5.707 5.280222 2.736095 28.712581  
2002-01-16 05:40:23 51°22.173 3°5.734 5.15646 2.735895 28.710269  
2002-01-16 05:40:28 51°22.179 3°5.762 5.114915 2.736095 28.711804  
2002-01-16 05:40:33 51°22.184 3°5.79 5.114915 2.736095 28.711804  
2002-01-16 05:40:38 51°22.188 3°5.818 5.033061 2.736095 28.711027  
2002-01-16 05:40:43 51°22.192 3°5.846 4.657018 2.735995 28.709871  
2002-01-16 05:40:48 51°22.196 3°5.874 4.828416 2.736295 28.713339  
2002-01-16 05:40:53 51°22.198 3°5.902 4.783804 2.736095 28.711027  
2002-01-16 05:40:58 51°22.204 3°5.93 5.320649 2.736295 28.711008  
2002-01-16 05:41:03 51°22.206 3°5.959 5.320649 2.736295 28.711008  
2002-01-16 05:41:08 51°22.212 3°5.986 5.365991 2.736195 28.709075  
2002-01-16 05:41:13 51°22.213 3°6.015 5.898417 2.736395 28.709833  
2002-01-16 05:41:17 51°22.218 3°6.037 5.322314 2.735895 28.706384  
2002-01-16 05:41:23 51°22.221 3°6.071 5.486877 2.736395 28.71061  
2002-01-16 05:41:28 51°22.226 3°6.099 5.154487 2.736495 28.711766  
2002-01-16 05:41:33 51°22.228 3°6.128 5.154487 2.736495 28.711766  
2002-01-16 05:41:38 51°22.234 3°6.155 5.321204 2.736395 28.711387  
2002-01-16 05:41:43 51°22.236 3°6.184 5.401525 2.736495 28.71332  
2002-01-16 05:41:48 51°22.241 3°6.211 5.029817 2.736395 28.712164  
2002-01-16 05:41:53 51°22.244 3°6.24 5.154891 2.736595 28.713699  
2002-01-16 05:41:58 51°22.249 3°6.268 5.19646 2.736495 28.71332  
2002-01-16 05:42:03 51°22.252 3°6.297 5.19646 2.736495 28.71332  
2002-01-16 05:42:08 51°22.255 3°6.325 5.072634 2.736595 28.715253  
2002-01-16 05:42:13 51°22.26 3°6.354 4.783956 2.736495 28.71332  
2002-01-16 05:42:18 51°22.263 3°6.383 5.241336 2.736495 28.714874  
2002-01-16 05:42:23 51°22.268 3°6.411 4.991536 2.736395 28.713718  
2002-01-16 05:42:28 51°22.269 3°6.44 5.079066 2.736395 28.715272  
2002-01-16 05:42:33 51°22.274 3°6.469 5.079066 2.736395 28.715272  
2002-01-16 05:42:38 51°22.274 3°6.498 4.78533 2.736595 28.71603  
2002-01-16 05:42:43 51°22.278 3°6.526 4.993108 2.736595 28.717584  
2002-01-16 05:42:48 51°22.279 3°6.555 5.366999 2.736695 28.717186  
2002-01-16 05:42:53 51°22.281 3°6.584 5.238759 2.736796 28.716788  
2002-01-16 05:42:58 51°22.284 3°6.613 5.199645 2.736996 28.716769  
2002-01-16 05:43:03 51°22.286 3°6.642 5.199645 2.736996 28.716769  
2002-01-16 05:43:08 51°22.288 3°6.671 5.649306 2.737096 28.717148  
2002-01-16 05:43:13 51°22.289 3°6.699 5.527926 2.737196 28.716749  
2002-01-16 05:43:18 51°22.29 3°6.728 5.074508 2.737296 28.720236  
2002-01-16 05:43:23 51°22.293 3°6.757 5.487179 2.737396 28.720615  
2002-01-16 05:43:28 51°22.294 3°6.786 5.322819 2.737396 28.723724  
2002-01-16 05:43:33 51°22.297 3°6.815 5.322819 2.737396 28.723724  
2002-01-16 05:43:38 51°22.299 3°6.843 5.278556 2.737396 28.723724  
2002-01-16 05:43:43 51°22.3 3°6.872 5.528127 2.737196 28.721412  
2002-01-16 05:43:48 51°22.304 3°6.901 5.691603 2.737296 28.723345  
2002-01-16 05:43:53 51°22.306 3°6.93 5.322667 2.737296 28.721013  
2002-01-16 05:43:58 51°22.308 3°6.958 5.117294 2.737396 28.724501  
2002-01-16 05:44:03 51°22.311 3°6.987 5.117294 2.737396 28.724501  
2002-01-16 05:44:08 51°22.313 3°7.016 5.444039 2.737296 28.721791  
2002-01-16 05:44:13 51°22.316 3°7.044 4.826026 2.737396 28.723724  
2002-01-16 05:44:18 51°22.318 3°7.072 5.321053 2.737396 28.723724  
2002-01-16 05:44:23 51°22.322 3°7.101 5.318429 2.737496 28.724103  
2002-01-16 05:44:28 51°22.325 3°7.129 5.236941 2.737796 28.72757  
2002-01-16 05:44:33 51°22.326 3°7.158 5.236941 2.737796 28.72757  
2002-01-16 05:44:37 51°22.328 3°7.181 5.029716 2.737796 28.72757  
2002-01-16 05:44:43 51°22.331 3°7.215 5.150642 2.737696 28.726414  
2002-01-16 05:44:48 51°22.334 3°7.244 5.234465 2.737996 28.729882  
2002-01-16 05:44:53 51°22.336 3°7.272 5.071924 2.737896 28.728726  
2002-01-16 05:44:58 51°22.338 3°7.301 4.942117 2.737796 28.72757  
2002-01-16 05:45:03 51°22.341 3°7.329 4.942117 2.737796 28.72757  
2002-01-16 05:45:08 51°22.343 3°7.358 5.112232 2.737896 28.731059  
2002-01-16 05:45:13 51°22.345 3°7.387 4.984283 2.738096 28.732593  
2002-01-16 05:45:18 51°22.347 3°7.415 5.10879 2.737996 28.732215  
2002-01-16 05:45:23 51°22.35 3°7.444 5.233151 2.738096 28.735704  
2002-01-16 05:45:28 51°22.353 3°7.472 5.398703 2.738296 28.737238  
2002-01-16 05:45:33 51°22.356 3°7.501 5.398703 2.738296 28.737238  
2002-01-16 05:45:38 51°22.358 3°7.529 5.108891 2.738196 28.737638  
2002-01-16 05:45:43 51°22.36 3°7.558 5.358176 2.738196 28.73686  
2002-01-16 05:45:48 51°22.363 3°7.586 4.944604 2.738396 28.739172  
2002-01-16 05:45:53 51°22.366 3°7.615 5.069645 2.738396 28.73995  
2002-01-16 05:45:58 51°22.368 3°7.643 5.193073 2.738497 28.741106  
2002-01-16 05:46:03 51°22.371 3°7.672 5.193073 2.738497 28.741106  
2002-01-16 05:46:08 51°22.373 3°7.701 5.387012 2.738497 28.74344  
2002-01-16 05:46:13 51°22.375 3°7.73 5.191607 2.738797 28.746909  
2002-01-16 05:46:18 51°22.378 3°7.758 5.398754 2.738697 28.744975  
2002-01-16 05:46:23 51°22.38 3°7.787 5.316007 2.739097 28.748044  
2002-01-16 05:46:28 51°22.383 3°7.815 5.359386 2.739297 28.751913  
2002-01-16 05:46:33 51°22.386 3°7.844 5.359386 2.739297 28.751913  
2002-01-16 05:46:38 51°22.388 3°7.872 4.946431 2.739397 28.751513  
2002-01-16 05:46:43 51°22.392 3°7.9 4.988442 2.739697 28.754982  
2002-01-16 05:46:48 51°22.394 3°7.929 5.034429 2.740097 28.760386  
2002-01-16 05:46:53 51°22.397 3°7.957 5.117851 2.740298 28.76192  
2002-01-16 05:46:58 51°22.398 3°7.986 5.244316 2.740598 28.766168  
2002-01-16 05:47:03 51°22.4 3°8.014 5.244316 2.740598 28.766168  
2002-01-16 05:47:07 51°22.4 3°8.037 5.119673 2.740898 28.76808  
2002-01-16 05:47:13 51°22.401 3°8.07 4.864255 2.741298 28.771148  
2002-01-16 05:47:18 51°22.401 3°8.099 5.492161 2.741598 28.773838  
2002-01-16 05:47:23 51°22.403 3°8.127 5.202981 2.741998 28.777685  
2002-01-16 05:47:28 51°22.402 3°8.155 4.87264 2.742399 28.779974  
2002-01-16 05:47:33 51°22.403 3°8.184 4.87264 2.742399 28.779974  
2002-01-16 05:47:38 51°22.403 3°8.212 4.868931 2.742799 28.784599  
2002-01-16 05:47:43 51°22.404 3°8.241 4.996253 2.743199 28.788445  
2002-01-16 05:47:48 51°22.404 3°8.269 4.852362 2.743599 28.79307  
2002-01-16 05:47:53 51°22.404 3°8.298 4.99818 2.7442 28.799229  
2002-01-16 05:47:58 51°22.405 3°8.326 5.162732 2.7448 28.805387  
2002-01-16 05:48:03 51°22.406 3°8.355 5.162732 2.7448 28.805387  
2002-01-16 05:48:08 51°22.406 3°8.384 5.242649 2.7453 28.810389  
2002-01-16 05:48:13 51°22.408 3°8.412 5.245781 2.746201 28.821576  
2002-01-16 05:48:18 51°22.407 3°8.441 5.11947 2.746701 28.826578  
2002-01-16 05:48:23 51°22.409 3°8.47 5.241892 2.747402 28.834672  
2002-01-16 05:48:28 51°22.408 3°8.498 5.369621 2.748302 28.8443  
2002-01-16 05:48:33 51°22.41 3°8.527 5.369621 2.748302 28.8443  
2002-01-16 05:48:38 51°22.41 3°8.556 5.451643 2.748702 28.849706  
2002-01-16 05:48:43 51°22.411 3°8.584 5.078813 2.748902 28.8528  
2002-01-16 05:48:47 51°22.411 3°8.607 5.288148 2.749303 28.857426  
2002-01-16 05:48:53 51°22.412 3°8.642 5.325291 2.749703 28.861272  
2002-01-16 05:48:58 51°22.411 3°8.67 5.450887 2.750003 28.865522  
2002-01-16 05:49:03 51°22.411 3°8.699 5.450887 2.750003 28.865522  
2002-01-16 05:49:07 51°22.41 3°8.722 5.078509 2.750203 28.867054  
2002-01-16 05:49:13 51°22.41 3°8.756 5.367403 2.750503 28.869743  
2002-01-16 05:49:18 51°22.41 3°8.784 5.326501 2.750703 28.872837  
2002-01-16 05:49:23 51°22.41 3°8.813 4.951811 2.750804 28.873994  
2002-01-16 05:49:28 51°22.408 3°8.841 5.363167 2.751104 28.876683